Time,TemperatureF,DewpointF,PressureIn,WindDirection,WindDirectionDegrees,WindSpeedMPH,WindSpeedGustMPH,Humidity,HourlyPrecipIn,Conditions,Clouds,dailyrainin,SoftwareType,DateUTC
2013-02-22 00:03:00,45.0,36.2,30.14,North,0,0.0,0.0,71,0.00,,,0.00,WUHU216HW,2013-02-22 08:03:00,
2013-02-22 00:08:00,45.0,36.2,30.14,North,0,0.0,0.0,71,0.00,,,0.00,WUHU216HW,2013-02-22 08:08:00,
2013-02-22 00:13:00,45.0,36.2,30.15,North,0,0.0,0.0,71,0.00,,,0.00,WUHU216HW,2013-02-22 08:13:00,
2013-02-22 00:18:00,44.8,36.0,30.15,North,0,0.0,0.0,71,0.00,,,0.00,WUHU216HW,2013-02-22 08:18:00,
2013-02-22 00:23:00,44.6,35.8,30.15,North,0,0.0,0.0,71,0.00,,,0.00,WUHU216HW,2013-02-22 08:23:00,
2013-02-22 00:28:00,44.6,35.8,30.15,North,0,0.0,0.0,71,0.00,,,0.00,WUHU216HW,2013-02-22 08:28:00,
2013-02-22 00:33:00,44.5,35.7,30.15,North,0,0.0,0.0,71,0.00,,,0.00,WUHU216HW,2013-02-22 08:33:00,
2013-02-22 00:38:00,44.3,35.8,30.15,North,0,0.0,0.0,72,0.00,,,0.00,WUHU216HW,2013-02-22 08:38:00,
2013-02-22 00:43:00,43.9,35.5,30.15,North,0,0.0,0.0,72,0.00,,,0.00,WUHU216HW,2013-02-22 08:43:00,
2013-02-22 00:48:00,43.6,34.8,30.15,North,0,0.0,0.0,71,0.00,,,0.00,WUHU216HW,2013-02-22 08:48:00,
2013-02-22 00:53:00,43.6,35.2,30.15,North,0,0.0,0.0,72,0.00,,,0.00,WUHU216HW,2013-02-22 08:53:00,
2013-02-22 00:58:00,43.6,35.2,30.15,North,0,0.0,0.0,72,0.00,,,0.00,WUHU216HW,2013-02-22 08:58:00,
2013-02-22 01:03:00,43.4,35.0,30.15,North,0,0.0,0.0,72,0.00,,,0.00,WUHU216HW,2013-02-22 09:03:00,
2013-02-22 01:08:00,43.2,34.8,30.16,North,0,0.0,0.0,72,0.00,,,0.00,WUHU216HW,2013-02-22 09:08:00,
2013-02-22 01:13:00,43.2,35.2,30.16,North,0,0.0,0.0,73,0.00,,,0.00,WUHU216HW,2013-02-22 09:13:00,
2013-02-22 01:19:00,43.2,35.2,30.16,North,0,0.0,0.0,73,0.00,,,0.00,WUHU216HW,2013-02-22 09:19:00,
2013-02-22 01:24:00,43.0,35.3,30.16,North,0,0.0,0.0,74,0.00,,,0.00,WUHU216HW,2013-02-22 09:24:00,
2013-02-22 01:29:00,42.8,35.1,30.16,North,0,0.0,0.0,74,0.00,,,0.00,WUHU216HW,2013-02-22 09:29:00,
2013-02-22 01:34:00,42.7,34.9,30.16,North,0,0.0,0.0,74,0.00,,,0.00,WUHU216HW,2013-02-22 09:34:00,
2013-02-22 01:39:00,42.8,35.1,30.16,North,0,0.0,0.0,74,0.00,,,0.00,WUHU216HW,2013-02-22 09:39:00,
2013-02-22 01:44:00,42.8,35.1,30.16,North,0,0.0,0.0,74,0.00,,,0.00,WUHU216HW,2013-02-22 09:44:00,
2013-02-22 01:49:00,42.8,35.1,30.16,North,0,0.0,0.0,74,0.00,,,0.00,WUHU216HW,2013-02-22 09:49:00,
2013-02-22 01:54:00,42.8,35.1,30.16,North,0,0.0,0.0,74,0.00,,,0.00,WUHU216HW,2013-02-22 09:54:00,
2013-02-22 01:59:00,42.8,35.1,30.16,North,0,0.0,0.0,74,0.00,,,0.00,WUHU216HW,2013-02-22 09:59:00,
2013-02-22 02:04:00,42.7,34.9,30.16,North,0,0.0,0.0,74,0.00,,,0.00,WUHU216HW,2013-02-22 10:04:00,
2013-02-22 02:09:00,42.7,34.9,30.16,North,0,0.0,0.0,74,0.00,,,0.00,WUHU216HW,2013-02-22 10:09:00,
2013-02-22 02:14:00,42.8,35.1,30.16,North,0,0.0,0.0,74,0.00,,,0.00,WUHU216HW,2013-02-22 10:14:00,
2013-02-22 02:19:00,42.5,35.1,30.17,North,0,0.0,0.0,75,0.00,,,0.00,WUHU216HW,2013-02-22 10:19:00,
2013-02-22 02:24:00,42.3,34.9,30.16,North,0,0.0,0.0,75,0.00,,,0.00,WUHU216HW,2013-02-22 10:24:00,
2013-02-22 02:29:00,42.1,35.1,30.16,North,0,0.0,0.0,76,0.00,,,0.00,WUHU216HW,2013-02-22 10:29:00,
2013-02-22 02:35:00,42.1,35.1,30.16,North,0,0.0,0.0,76,0.00,,,0.00,WUHU216HW,2013-02-22 10:35:00,
2013-02-22 02:40:00,41.8,35.0,30.16,North,0,0.0,0.0,77,0.00,,,0.00,WUHU216HW,2013-02-22 10:40:00,
2013-02-22 02:45:00,41.6,34.8,30.16,North,0,0.0,0.0,77,0.00,,,0.00,WUHU216HW,2013-02-22 10:45:00,
2013-02-22 02:50:00,41.4,34.7,30.16,North,0,0.0,0.0,77,0.00,,,0.00,WUHU216HW,2013-02-22 10:50:00,
2013-02-22 02:55:00,41.6,34.8,30.16,North,0,0.0,0.0,77,0.00,,,0.00,WUHU216HW,2013-02-22 10:55:00,
2013-02-22 03:00:00,41.6,34.8,30.16,North,0,0.0,0.0,77,0.00,,,0.00,WUHU216HW,2013-02-22 11:00:00,
2013-02-22 03:05:00,41.4,34.7,30.16,North,0,0.0,0.0,77,0.00,,,0.00,WUHU216HW,2013-02-22 11:05:00,
2013-02-22 03:10:00,41.2,34.5,30.16,North,0,0.0,0.0,77,0.00,,,0.00,WUHU216HW,2013-02-22 11:10:00,
2013-02-22 03:15:00,41.0,34.3,30.16,North,0,0.0,0.0,77,0.00,,,0.00,WUHU216HW,2013-02-22 11:15:00,
2013-02-22 03:20:00,40.7,33.9,30.16,North,0,0.0,0.0,77,0.00,,,0.00,WUHU216HW,2013-02-22 11:20:00,
2013-02-22 03:25:00,40.7,34.3,30.16,North,0,0.0,0.0,78,0.00,,,0.00,WUHU216HW,2013-02-22 11:25:00,
2013-02-22 03:30:00,40.3,33.9,30.16,North,0,0.0,0.0,78,0.00,,,0.00,WUHU216HW,2013-02-22 11:30:00,
2013-02-22 03:35:00,40.1,34.1,30.16,North,0,0.0,0.0,79,0.00,,,0.00,WUHU216HW,2013-02-22 11:35:00,
2013-02-22 03:40:00,40.0,33.9,30.16,North,0,0.0,0.0,79,0.00,,,0.00,WUHU216HW,2013-02-22 11:40:00,
2013-02-22 03:45:00,39.8,33.9,30.16,North,0,0.0,0.0,79,0.00,,,0.00,WUHU216HW,2013-02-22 11:45:00,
2013-02-22 03:50:00,39.8,33.9,30.17,North,0,0.0,0.0,79,0.00,,,0.00,WUHU216HW,2013-02-22 11:50:00,
2013-02-22 03:56:00,39.6,33.7,30.16,North,0,0.0,0.0,79,0.00,,,0.00,WUHU216HW,2013-02-22 11:56:00,
2013-02-22 04:01:00,39.6,33.7,30.17,North,0,0.0,0.0,79,0.00,,,0.00,WUHU216HW,2013-02-22 12:01:00,
2013-02-22 04:06:00,39.2,33.3,30.17,North,0,0.0,0.0,79,0.00,,,0.00,WUHU216HW,2013-02-22 12:06:00,
2013-02-22 04:11:00,39.1,33.1,30.17,North,0,0.0,0.0,79,0.00,,,0.00,WUHU216HW,2013-02-22 12:11:00,
2013-02-22 04:16:00,38.9,32.9,30.17,North,0,0.0,0.0,79,0.00,,,0.00,WUHU216HW,2013-02-22 12:16:00,
2013-02-22 04:21:00,38.9,33.3,30.17,North,0,0.0,0.0,80,0.00,,,0.00,WUHU216HW,2013-02-22 12:21:00,
2013-02-22 04:26:00,39.1,33.5,30.17,North,0,0.0,0.0,80,0.00,,,0.00,WUHU216HW,2013-02-22 12:26:00,
2013-02-22 04:31:00,39.1,33.5,30.17,North,0,0.0,0.0,80,0.00,,,0.00,WUHU216HW,2013-02-22 12:31:00,
2013-02-22 04:36:00,39.2,33.7,30.17,North,0,0.0,0.0,80,0.00,,,0.00,WUHU216HW,2013-02-22 12:36:00,
2013-02-22 04:41:00,39.1,33.5,30.17,North,0,0.0,0.0,80,0.00,,,0.00,WUHU216HW,2013-02-22 12:41:00,
2013-02-22 04:47:00,38.9,33.3,30.17,North,0,0.0,0.0,80,0.00,,,0.00,WUHU216HW,2013-02-22 12:47:00,
2013-02-22 04:51:00,38.9,33.3,30.17,North,0,0.0,0.0,80,0.00,,,0.00,WUHU216HW,2013-02-22 12:51:00,
2013-02-22 04:57:00,38.9,33.3,30.17,North,0,0.0,0.0,80,0.00,,,0.00,WUHU216HW,2013-02-22 12:57:00,
2013-02-22 05:02:00,38.9,33.3,30.18,North,0,0.0,0.0,80,0.00,,,0.00,WUHU216HW,2013-02-22 13:02:00,
2013-02-22 05:07:00,38.9,33.3,30.18,North,0,0.0,0.0,80,0.00,,,0.00,WUHU216HW,2013-02-22 13:07:00,
2013-02-22 05:12:00,38.7,33.1,30.18,North,0,0.0,0.0,80,0.00,,,0.00,WUHU216HW,2013-02-22 13:12:00,
2013-02-22 05:17:00,38.7,33.1,30.18,North,0,0.0,0.0,80,0.00,,,0.00,WUHU216HW,2013-02-22 13:17:00,
2013-02-22 05:22:00,38.5,33.2,30.18,North,0,0.0,0.0,81,0.00,,,0.00,WUHU216HW,2013-02-22 13:22:00,
2013-02-22 05:27:00,38.5,33.2,30.18,North,0,0.0,0.0,81,0.00,,,0.00,WUHU216HW,2013-02-22 13:27:00,
2013-02-22 05:32:00,38.5,33.2,30.18,North,0,0.0,0.0,81,0.00,,,0.00,WUHU216HW,2013-02-22 13:32:00,
2013-02-22 05:37:00,38.7,33.4,30.19,North,0,0.0,0.0,81,0.00,,,0.00,WUHU216HW,2013-02-22 13:37:00,
2013-02-22 05:42:00,38.5,33.2,30.19,North,0,0.0,0.0,81,0.00,,,0.00,WUHU216HW,2013-02-22 13:42:00,
2013-02-22 05:47:00,38.7,33.1,30.19,North,0,0.0,0.0,80,0.00,,,0.00,WUHU216HW,2013-02-22 13:47:00,
2013-02-22 05:52:00,38.7,33.1,30.19,North,0,0.0,0.0,80,0.00,,,0.00,WUHU216HW,2013-02-22 13:52:00,
2013-02-22 05:57:00,38.9,33.3,30.19,North,0,0.0,0.0,80,0.00,,,0.00,WUHU216HW,2013-02-22 13:57:00,
2013-02-22 06:02:00,38.9,33.3,30.19,North,0,0.0,0.0,80,0.00,,,0.00,WUHU216HW,2013-02-22 14:02:00,
2013-02-22 06:07:00,38.5,32.9,30.19,North,0,0.0,0.0,80,0.00,,,0.00,WUHU216HW,2013-02-22 14:07:00,
2013-02-22 06:12:00,38.5,32.9,30.19,North,0,0.0,0.0,80,0.00,,,0.00,WUHU216HW,2013-02-22 14:12:00,
2013-02-22 06:17:00,38.7,33.1,30.19,North,0,0.0,0.0,80,0.00,,,0.00,WUHU216HW,2013-02-22 14:17:00,
2013-02-22 06:23:00,38.5,32.9,30.19,North,0,0.0,0.0,80,0.00,,,0.00,WUHU216HW,2013-02-22 14:23:00,
2013-02-22 06:28:00,38.7,33.1,30.19,North,0,0.0,0.0,80,0.00,,,0.00,WUHU216HW,2013-02-22 14:28:00,
2013-02-22 06:33:00,38.7,33.1,30.19,North,0,0.0,0.0,80,0.00,,,0.00,WUHU216HW,2013-02-22 14:33:00,
2013-02-22 06:38:00,38.9,33.3,30.19,North,0,0.0,0.0,80,0.00,,,0.00,WUHU216HW,2013-02-22 14:38:00,
2013-02-22 06:43:00,38.7,33.1,30.19,North,0,0.0,0.0,80,0.00,,,0.00,WUHU216HW,2013-02-22 14:43:00,
2013-02-22 06:48:00,38.7,33.1,30.20,North,0,0.0,0.0,80,0.00,,,0.00,WUHU216HW,2013-02-22 14:48:00,
2013-02-22 06:53:00,38.9,33.3,30.20,North,0,0.0,0.0,80,0.00,,,0.00,WUHU216HW,2013-02-22 14:53:00,
2013-02-22 06:58:00,38.9,33.3,30.21,North,0,0.0,0.0,80,0.00,,,0.00,WUHU216HW,2013-02-22 14:58:00,
2013-02-22 07:03:00,39.1,33.5,30.20,North,0,0.0,0.0,80,0.00,,,0.00,WUHU216HW,2013-02-22 15:03:00,
2013-02-22 07:09:00,39.2,33.7,30.21,North,0,0.0,0.0,80,0.00,,,0.00,WUHU216HW,2013-02-22 15:09:00,
2013-02-22 07:14:00,39.2,33.7,30.21,North,0,0.0,0.0,80,0.00,,,0.00,WUHU216HW,2013-02-22 15:14:00,
2013-02-22 07:19:00,39.4,33.9,30.21,North,0,0.0,0.0,80,0.00,,,0.00,WUHU216HW,2013-02-22 15:19:00,
2013-02-22 07:24:00,39.6,34.0,30.21,North,0,0.0,0.0,80,0.00,,,0.00,WUHU216HW,2013-02-22 15:24:00,
2013-02-22 07:29:00,40.0,34.3,30.21,North,0,0.0,0.0,80,0.00,,,0.00,WUHU216HW,2013-02-22 15:29:00,
2013-02-22 07:34:00,41.2,35.7,30.22,North,0,0.0,0.0,81,0.00,,,0.00,WUHU216HW,2013-02-22 15:34:00,
2013-02-22 07:39:00,43.0,37.3,30.22,North,0,0.0,0.0,80,0.00,,,0.00,WUHU216HW,2013-02-22 15:39:00,
2013-02-22 07:44:00,44.8,38.3,30.23,North,0,0.0,0.0,78,0.00,,,0.00,WUHU216HW,2013-02-22 15:44:00,
2013-02-22 07:49:00,45.7,39.2,30.23,North,0,0.0,0.0,78,0.00,,,0.00,WUHU216HW,2013-02-22 15:49:00,
2013-02-22 07:54:00,46.4,39.3,30.23,North,0,0.0,0.0,76,0.00,,,0.00,WUHU216HW,2013-02-22 15:54:00,
2013-02-22 07:59:00,47.5,40.0,30.23,North,0,0.0,0.0,75,0.00,,,0.00,WUHU216HW,2013-02-22 15:59:00,
2013-02-22 08:04:00,50.0,41.4,30.23,North,0,0.0,0.0,72,0.00,,,0.00,WUHU216HW,2013-02-22 16:04:00,
2013-02-22 08:09:00,51.3,41.9,30.23,North,0,0.0,0.0,70,0.00,,,0.00,WUHU216HW,2013-02-22 16:09:00,
2013-02-22 08:14:00,51.7,41.5,30.23,North,0,0.0,0.0,68,0.00,,,0.00,WUHU216HW,2013-02-22 16:14:00,
2013-02-22 08:19:00,50.9,40.3,30.23,North,0,0.0,0.0,67,0.00,,,0.00,WUHU216HW,2013-02-22 16:19:00,
2013-02-22 08:25:00,48.8,38.3,30.23,North,0,0.0,0.0,67,0.00,,,0.00,WUHU216HW,2013-02-22 16:25:00,
2013-02-22 08:30:00,47.5,37.9,30.24,North,0,0.0,0.0,69,0.00,,,0.00,WUHU216HW,2013-02-22 16:30:00,
2013-02-22 08:35:00,46.8,37.6,30.24,North,0,0.0,0.0,70,0.00,,,0.00,WUHU216HW,2013-02-22 16:35:00,
2013-02-22 08:40:00,46.4,37.6,30.23,North,0,0.0,0.0,71,0.00,,,0.00,WUHU216HW,2013-02-22 16:40:00,
2013-02-22 08:45:00,46.4,38.0,30.24,North,0,0.0,0.0,72,0.00,,,0.00,WUHU216HW,2013-02-22 16:45:00,
2013-02-22 08:50:00,46.8,38.6,30.24,North,0,0.0,0.0,73,0.00,,,0.00,WUHU216HW,2013-02-22 16:50:00,
2013-02-22 08:55:00,46.8,38.6,30.24,North,0,0.0,0.0,73,0.00,,,0.00,WUHU216HW,2013-02-22 16:55:00,
2013-02-22 09:00:00,47.0,38.4,30.24,North,0,0.0,0.0,72,0.00,,,0.00,WUHU216HW,2013-02-22 17:00:00,
2013-02-22 09:05:00,47.2,38.6,30.24,North,0,0.0,0.0,72,0.00,,,0.00,WUHU216HW,2013-02-22 17:05:00,
2013-02-22 09:10:00,47.7,39.1,30.24,North,0,0.0,0.0,72,0.00,,,0.00,WUHU216HW,2013-02-22 17:10:00,
2013-02-22 09:15:00,48.2,39.6,30.24,North,0,0.0,0.0,72,0.00,,,0.00,WUHU216HW,2013-02-22 17:15:00,
2013-02-22 09:20:00,48.8,39.8,30.23,North,0,0.0,0.0,71,0.00,,,0.00,WUHU216HW,2013-02-22 17:20:00,
2013-02-22 09:25:00,49.3,40.3,30.23,North,0,0.0,0.0,71,0.00,,,0.00,WUHU216HW,2013-02-22 17:25:00,
2013-02-22 09:30:00,49.7,40.7,30.23,North,0,0.0,0.0,71,0.00,,,0.00,WUHU216HW,2013-02-22 17:30:00,
2013-02-22 09:35:00,50.0,41.1,30.23,North,0,0.0,0.0,71,0.00,,,0.00,WUHU216HW,2013-02-22 17:35:00,
2013-02-22 09:40:00,50.4,41.4,30.23,North,0,0.0,0.0,71,0.00,,,0.00,WUHU216HW,2013-02-22 17:40:00,
2013-02-22 09:45:00,50.4,41.0,30.24,North,0,0.0,0.0,70,0.00,,,0.00,WUHU216HW,2013-02-22 17:45:00,
2013-02-22 09:51:00,50.4,41.0,30.24,North,0,0.0,0.0,70,0.00,,,0.00,WUHU216HW,2013-02-22 17:51:00,
2013-02-22 09:56:00,50.8,41.1,30.24,North,0,0.0,0.0,69,0.00,,,0.00,WUHU216HW,2013-02-22 17:56:00,
2013-02-22 10:01:00,50.4,40.2,30.24,North,0,0.0,0.0,68,0.00,,,0.00,WUHU216HW,2013-02-22 18:01:00,
2013-02-22 10:06:00,50.4,40.2,30.24,North,0,0.0,0.0,68,0.00,,,0.00,WUHU216HW,2013-02-22 18:06:00,
2013-02-22 10:11:00,50.6,40.4,30.24,North,0,0.0,0.0,68,0.00,,,0.00,WUHU216HW,2013-02-22 18:11:00,
2013-02-22 10:16:00,50.8,40.2,30.24,North,0,0.0,0.0,67,0.00,,,0.00,WUHU216HW,2013-02-22 18:16:00,
2013-02-22 10:21:00,51.1,39.7,30.24,North,0,0.0,0.0,65,0.00,,,0.00,WUHU216HW,2013-02-22 18:21:00,
2013-02-22 10:26:00,51.5,40.5,30.24,North,0,0.0,0.0,66,0.00,,,0.00,WUHU216HW,2013-02-22 18:26:00,
2013-02-22 10:31:00,51.7,40.2,30.24,North,0,0.0,0.0,65,0.00,,,0.00,WUHU216HW,2013-02-22 18:31:00,
2013-02-22 10:36:00,51.8,40.4,30.24,North,0,0.0,0.0,65,0.00,,,0.00,WUHU216HW,2013-02-22 18:36:00,
2013-02-22 10:41:00,52.2,40.8,30.24,North,0,0.0,0.0,65,0.00,,,0.00,WUHU216HW,2013-02-22 18:41:00,
2013-02-22 10:46:00,52.6,41.1,30.24,North,0,0.0,0.0,65,0.00,,,0.00,WUHU216HW,2013-02-22 18:46:00,
2013-02-22 10:51:00,52.7,40.9,30.24,North,0,0.0,0.0,64,0.00,,,0.00,WUHU216HW,2013-02-22 18:51:00,
2013-02-22 10:56:00,52.9,39.8,30.24,North,0,0.0,0.0,61,0.00,,,0.00,WUHU216HW,2013-02-22 18:56:00,
2013-02-22 11:01:00,53.1,39.6,30.24,North,0,0.0,0.0,60,0.00,,,0.00,WUHU216HW,2013-02-22 19:01:00,
2013-02-22 11:06:00,53.5,39.1,30.24,North,0,0.0,0.0,58,0.00,,,0.00,WUHU216HW,2013-02-22 19:06:00,
2013-02-22 11:11:00,53.6,38.7,30.24,North,0,0.0,0.0,57,0.00,,,0.00,WUHU216HW,2013-02-22 19:11:00,
2013-02-22 11:17:00,53.8,39.9,30.24,North,0,0.0,0.0,59,0.00,,,0.00,WUHU216HW,2013-02-22 19:17:00,
2013-02-22 11:22:00,54.4,39.4,30.23,North,0,0.0,0.0,57,0.00,,,0.00,WUHU216HW,2013-02-22 19:22:00,
2013-02-22 11:27:00,54.5,39.5,30.23,North,0,0.0,0.0,57,0.00,,,0.00,WUHU216HW,2013-02-22 19:27:00,
2013-02-22 11:32:00,54.7,40.7,30.23,North,0,0.0,0.0,59,0.00,,,0.00,WUHU216HW,2013-02-22 19:32:00,
2013-02-22 11:37:00,55.1,39.6,30.23,North,0,0.0,0.0,56,0.00,,,0.00,WUHU216HW,2013-02-22 19:37:00,
2013-02-22 11:42:00,55.3,39.7,30.23,North,0,0.0,0.0,56,0.00,,,0.00,WUHU216HW,2013-02-22 19:42:00,
2013-02-22 11:47:00,55.4,39.4,30.23,North,0,0.0,0.0,55,0.00,,,0.00,WUHU216HW,2013-02-22 19:47:00,
2013-02-22 11:52:00,55.8,39.3,30.23,North,0,0.0,0.0,54,0.00,,,0.00,WUHU216HW,2013-02-22 19:52:00,
2013-02-22 11:57:00,55.8,38.9,30.23,North,0,0.0,0.0,53,0.00,,,0.00,WUHU216HW,2013-02-22 19:57:00,
2013-02-22 12:02:00,56.2,39.7,30.23,North,0,0.0,0.0,54,0.00,,,0.00,WUHU216HW,2013-02-22 20:02:00,
2013-02-22 12:07:00,56.5,40.1,30.23,North,0,0.0,0.0,54,0.00,,,0.00,WUHU216HW,2013-02-22 20:07:00,
2013-02-22 12:12:00,56.7,39.2,30.22,North,0,0.0,0.0,52,0.00,,,0.00,WUHU216HW,2013-02-22 20:12:00,
2013-02-22 12:17:00,57.1,39.6,30.22,North,0,0.0,0.0,52,0.00,,,0.00,WUHU216HW,2013-02-22 20:17:00,
2013-02-22 12:22:00,57.4,39.5,30.21,North,0,0.0,0.0,51,0.00,,,0.00,WUHU216HW,2013-02-22 20:22:00,
2013-02-22 12:27:00,57.4,39.5,30.21,North,0,0.0,0.0,51,0.00,,,0.00,WUHU216HW,2013-02-22 20:27:00,
2013-02-22 12:32:00,57.8,39.9,30.21,North,0,0.0,0.0,51,0.00,,,0.00,WUHU216HW,2013-02-22 20:32:00,
2013-02-22 12:38:00,57.8,40.3,30.21,North,0,0.0,0.0,52,0.00,,,0.00,WUHU216HW,2013-02-22 20:38:00,
2013-02-22 12:43:00,58.0,40.0,30.21,North,0,0.0,0.0,51,0.00,,,0.00,WUHU216HW,2013-02-22 20:43:00,
2013-02-22 12:48:00,58.3,40.3,30.20,North,0,0.0,0.0,51,0.00,,,0.00,WUHU216HW,2013-02-22 20:48:00,
2013-02-22 12:53:00,58.5,38.9,30.20,North,0,0.0,0.0,48,0.00,,,0.00,WUHU216HW,2013-02-22 20:53:00,
2013-02-22 12:58:00,58.7,39.1,30.20,North,0,0.0,0.0,48,0.00,,,0.00,WUHU216HW,2013-02-22 20:58:00,
2013-02-22 13:03:00,58.9,38.6,30.20,North,0,0.0,0.0,47,0.00,,,0.00,WUHU216HW,2013-02-22 21:03:00,
2013-02-22 13:08:00,59.0,38.2,30.20,North,0,0.0,0.0,46,0.00,,,0.00,WUHU216HW,2013-02-22 21:08:00,
2013-02-22 13:13:00,59.4,39.1,30.20,North,0,0.0,0.0,47,0.00,,,0.00,WUHU216HW,2013-02-22 21:13:00,
2013-02-22 13:18:00,59.6,39.2,30.20,North,0,0.0,0.0,47,0.00,,,0.00,WUHU216HW,2013-02-22 21:18:00,
2013-02-22 13:23:00,59.8,40.0,30.20,North,0,0.0,0.0,48,0.00,,,0.00,WUHU216HW,2013-02-22 21:23:00,
2013-02-22 13:28:00,59.8,40.0,30.20,North,0,0.0,0.0,48,0.00,,,0.00,WUHU216HW,2013-02-22 21:28:00,
2013-02-22 13:33:00,59.8,39.4,30.19,North,0,0.0,0.0,47,0.00,,,0.00,WUHU216HW,2013-02-22 21:33:00,
2013-02-22 13:38:00,60.1,39.2,30.19,North,0,0.0,0.0,46,0.00,,,0.00,WUHU216HW,2013-02-22 21:38:00,
2013-02-22 13:43:00,60.1,39.2,30.19,North,0,0.0,0.0,46,0.00,,,0.00,WUHU216HW,2013-02-22 21:43:00,
2013-02-22 13:49:00,60.3,38.8,30.19,North,0,0.0,0.0,45,0.00,,,0.00,WUHU216HW,2013-02-22 21:49:00,
2013-02-22 13:54:00,60.7,39.7,30.18,North,0,0.0,0.0,46,0.00,,,0.00,WUHU216HW,2013-02-22 21:54:00,
2013-02-22 13:59:00,60.5,37.8,30.18,North,0,0.0,0.0,43,0.00,,,0.00,WUHU216HW,2013-02-22 21:59:00,
2013-02-22 14:04:00,60.8,38.1,30.18,North,0,0.0,0.0,43,0.00,,,0.00,WUHU216HW,2013-02-22 22:04:00,
2013-02-22 14:09:00,61.0,38.8,30.18,North,0,0.0,0.0,44,0.00,,,0.00,WUHU216HW,2013-02-22 22:09:00,
2013-02-22 14:14:00,61.2,39.0,30.18,North,0,0.0,0.0,44,0.00,,,0.00,WUHU216HW,2013-02-22 22:14:00,
2013-02-22 14:19:00,61.2,39.6,30.17,North,0,0.0,0.0,45,0.00,,,0.00,WUHU216HW,2013-02-22 22:19:00,
2013-02-22 14:24:00,61.6,39.3,30.18,North,0,0.0,0.0,44,0.00,,,0.00,WUHU216HW,2013-02-22 22:24:00,
2013-02-22 14:29:00,61.6,39.9,30.18,North,0,0.0,0.0,45,0.00,,,0.00,WUHU216HW,2013-02-22 22:29:00,
2013-02-22 14:34:00,61.7,40.6,30.17,North,0,0.0,0.0,46,0.00,,,0.00,WUHU216HW,2013-02-22 22:34:00,
2013-02-22 14:39:00,61.9,40.2,30.17,North,0,0.0,0.0,45,0.00,,,0.00,WUHU216HW,2013-02-22 22:39:00,
2013-02-22 14:44:00,61.7,40.1,30.17,North,0,0.0,0.0,45,0.00,,,0.00,WUHU216HW,2013-02-22 22:44:00,
2013-02-22 14:49:00,61.9,40.2,30.17,North,0,0.0,0.0,45,0.00,,,0.00,WUHU216HW,2013-02-22 22:49:00,
2013-02-22 14:54:00,61.9,40.2,30.17,North,0,0.0,0.0,45,0.00,,,0.00,WUHU216HW,2013-02-22 22:54:00,
2013-02-22 15:00:00,62.3,40.5,30.17,North,0,0.0,0.0,45,0.00,,,0.00,WUHU216HW,2013-02-22 23:00:00,
2013-02-22 15:05:00,62.1,40.4,30.17,North,0,0.0,0.0,45,0.00,,,0.00,WUHU216HW,2013-02-22 23:05:00,
2013-02-22 15:10:00,62.3,39.4,30.17,North,0,0.0,0.0,43,0.00,,,0.00,WUHU216HW,2013-02-22 23:10:00,
2013-02-22 15:15:00,62.3,40.0,30.17,North,0,0.0,0.0,44,0.00,,,0.00,WUHU216HW,2013-02-22 23:15:00,
2013-02-22 15:20:00,62.3,39.4,30.17,North,0,0.0,0.0,43,0.00,,,0.00,WUHU216HW,2013-02-22 23:20:00,
2013-02-22 15:25:00,62.5,40.2,30.17,North,0,0.0,0.0,44,0.00,,,0.00,WUHU216HW,2013-02-22 23:25:00,
2013-02-22 15:30:00,62.6,39.7,30.17,North,0,0.0,0.0,43,0.00,,,0.00,WUHU216HW,2013-02-22 23:30:00,
2013-02-22 15:35:00,62.8,38.7,30.17,North,0,0.0,0.0,41,0.00,,,0.00,WUHU216HW,2013-02-22 23:35:00,
2013-02-22 15:40:00,63.0,39.4,30.17,North,0,0.0,0.0,42,0.00,,,0.00,WUHU216HW,2013-02-22 23:40:00,
2013-02-22 15:45:00,63.0,39.4,30.17,North,0,0.0,0.0,42,0.00,,,0.00,WUHU216HW,2013-02-22 23:45:00,
2013-02-22 15:50:00,62.6,39.7,30.17,North,0,0.0,0.0,43,0.00,,,0.00,WUHU216HW,2013-02-22 23:50:00,
2013-02-22 15:55:00,62.6,39.7,30.16,North,0,0.0,0.0,43,0.00,,,0.00,WUHU216HW,2013-02-22 23:55:00,
2013-02-22 16:00:00,62.6,39.7,30.16,North,0,0.0,0.0,43,0.00,,,0.00,WUHU216HW,2013-02-23 00:00:00,
2013-02-22 16:05:00,63.0,40.1,30.16,North,0,0.0,0.0,43,0.00,,,0.00,WUHU216HW,2013-02-23 00:05:00,
2013-02-22 16:11:00,63.0,40.6,30.16,North,0,0.0,0.0,44,0.00,,,0.00,WUHU216HW,2013-02-23 00:11:00,
2013-02-22 16:16:00,62.8,40.4,30.16,North,0,0.0,0.0,44,0.00,,,0.00,WUHU216HW,2013-02-23 00:16:00,
2013-02-22 16:21:00,62.8,39.9,30.16,North,0,0.0,0.0,43,0.00,,,0.00,WUHU216HW,2013-02-23 00:21:00,
2013-02-22 16:26:00,62.6,40.9,30.16,North,0,0.0,0.0,45,0.00,,,0.00,WUHU216HW,2013-02-23 00:26:00,
2013-02-22 16:31:00,62.3,40.5,30.16,North,0,0.0,0.0,45,0.00,,,0.00,WUHU216HW,2013-02-23 00:31:00,
2013-02-22 16:36:00,62.5,40.7,30.16,North,0,0.0,0.0,45,0.00,,,0.00,WUHU216HW,2013-02-23 00:36:00,
2013-02-22 16:41:00,62.5,40.7,30.16,North,0,0.0,0.0,45,0.00,,,0.00,WUHU216HW,2013-02-23 00:41:00,
2013-02-22 16:46:00,62.1,41.0,30.16,North,0,0.0,0.0,46,0.00,,,0.00,WUHU216HW,2013-02-23 00:46:00,
2013-02-22 16:51:00,61.9,40.8,30.16,North,0,0.0,0.0,46,0.00,,,0.00,WUHU216HW,2013-02-23 00:51:00,
2013-02-22 16:56:00,61.6,41.0,30.16,North,0,0.0,0.0,47,0.00,,,0.00,WUHU216HW,2013-02-23 00:56:00,
2013-02-22 17:01:00,61.9,40.8,30.16,North,0,0.0,0.0,46,0.00,,,0.00,WUHU216HW,2013-02-23 01:01:00,
2013-02-22 17:06:00,62.3,40.0,30.16,North,0,0.0,0.0,44,0.00,,,0.00,WUHU216HW,2013-02-23 01:06:00,
2013-02-22 17:11:00,62.3,40.0,30.16,North,0,0.0,0.0,44,0.00,,,0.00,WUHU216HW,2013-02-23 01:11:00,
2013-02-22 17:16:00,62.3,40.5,30.16,North,0,0.0,0.0,45,0.00,,,0.00,WUHU216HW,2013-02-23 01:16:00,
2013-02-22 17:21:00,61.6,40.5,30.17,North,0,0.0,0.0,46,0.00,,,0.00,WUHU216HW,2013-02-23 01:21:00,
2013-02-22 17:26:00,61.0,40.6,30.17,North,0,0.0,0.0,47,0.00,,,0.00,WUHU216HW,2013-02-23 01:26:00,
2013-02-22 17:32:00,60.7,40.2,30.17,North,0,0.0,0.0,47,0.00,,,0.00,WUHU216HW,2013-02-23 01:32:00,
2013-02-22 17:37:00,60.3,40.5,30.17,North,0,0.0,0.0,48,0.00,,,0.00,WUHU216HW,2013-02-23 01:37:00,
2013-02-22 17:42:00,60.1,40.3,30.17,North,0,0.0,0.0,48,0.00,,,0.00,WUHU216HW,2013-02-23 01:42:00,
2013-02-22 17:47:00,60.3,40.5,30.17,North,0,0.0,0.0,48,0.00,,,0.00,WUHU216HW,2013-02-23 01:47:00,
2013-02-22 17:52:00,60.3,40.5,30.17,North,0,0.0,0.0,48,0.00,,,0.00,WUHU216HW,2013-02-23 01:52:00,
2013-02-22 17:57:00,60.1,39.8,30.17,North,0,0.0,0.0,47,0.00,,,0.00,WUHU216HW,2013-02-23 01:57:00,
2013-02-22 18:02:00,59.8,38.3,30.17,North,0,0.0,0.0,45,0.00,,,0.00,WUHU216HW,2013-02-23 02:02:00,
2013-02-22 18:07:00,59.4,38.5,30.17,North,0,0.0,0.0,46,0.00,,,0.00,WUHU216HW,2013-02-23 02:07:00,
2013-02-22 18:12:00,59.2,38.3,30.17,North,0,0.0,0.0,46,0.00,,,0.00,WUHU216HW,2013-02-23 02:12:00,
2013-02-22 18:17:00,58.9,38.6,30.16,North,0,0.0,0.0,47,0.00,,,0.00,WUHU216HW,2013-02-23 02:17:00,
2013-02-22 18:22:00,58.7,37.3,30.16,North,0,0.0,0.0,45,0.00,,,0.00,WUHU216HW,2013-02-23 02:22:00,
2013-02-22 18:27:00,58.7,37.9,30.16,North,0,0.0,0.0,46,0.00,,,0.00,WUHU216HW,2013-02-23 02:27:00,
2013-02-22 18:32:00,58.5,38.3,30.17,North,0,0.0,0.0,47,0.00,,,0.00,WUHU216HW,2013-02-23 02:32:00,
2013-02-22 18:37:00,58.3,38.2,30.16,North,0,0.0,0.0,47,0.00,,,0.00,WUHU216HW,2013-02-23 02:37:00,
2013-02-22 18:42:00,58.0,37.8,30.17,North,0,0.0,0.0,47,0.00,,,0.00,WUHU216HW,2013-02-23 02:42:00,
2013-02-22 18:47:00,57.6,38.1,30.16,North,0,0.0,0.0,48,0.00,,,0.00,WUHU216HW,2013-02-23 02:47:00,
2013-02-22 18:52:00,57.6,38.1,30.17,North,0,0.0,0.0,48,0.00,,,0.00,WUHU216HW,2013-02-23 02:52:00,
2013-02-22 18:58:00,57.4,38.4,30.17,North,0,0.0,0.0,49,0.00,,,0.00,WUHU216HW,2013-02-23 02:58:00,
2013-02-22 19:03:00,57.1,38.2,30.17,North,0,0.0,0.0,49,0.00,,,0.00,WUHU216HW,2013-02-23 03:03:00,
2013-02-22 19:08:00,56.2,37.8,30.17,North,0,0.0,0.0,50,0.00,,,0.00,WUHU216HW,2013-02-23 03:08:00,
2013-02-22 19:13:00,55.8,37.4,30.17,North,0,0.0,0.0,50,0.00,,,0.00,WUHU216HW,2013-02-23 03:13:00,
2013-02-22 19:18:00,55.8,37.4,30.17,North,0,0.0,0.0,50,0.00,,,0.00,WUHU216HW,2013-02-23 03:18:00,
2013-02-22 19:23:00,55.6,37.3,30.17,North,0,0.0,0.0,50,0.00,,,0.00,WUHU216HW,2013-02-23 03:23:00,
2013-02-22 19:28:00,55.6,37.3,30.17,North,0,0.0,0.0,50,0.00,,,0.00,WUHU216HW,2013-02-23 03:28:00,
2013-02-22 19:33:00,55.8,38.3,30.17,North,0,0.0,0.0,52,0.00,,,0.00,WUHU216HW,2013-02-23 03:33:00,
2013-02-22 19:38:00,55.8,38.9,30.17,North,0,0.0,0.0,53,0.00,,,0.00,WUHU216HW,2013-02-23 03:38:00,
2013-02-22 19:43:00,55.4,39.0,30.17,North,0,0.0,0.0,54,0.00,,,0.00,WUHU216HW,2013-02-23 03:43:00,
2013-02-22 19:48:00,55.1,39.1,30.18,North,0,0.0,0.0,55,0.00,,,0.00,WUHU216HW,2013-02-23 03:48:00,
2013-02-22 19:53:00,54.9,39.4,30.18,North,0,0.0,0.0,56,0.00,,,0.00,WUHU216HW,2013-02-23 03:53:00,
2013-02-22 19:58:00,54.7,39.2,30.18,North,0,0.0,0.0,56,0.00,,,0.00,WUHU216HW,2013-02-23 03:58:00,
2013-02-22 20:03:00,54.4,38.9,30.19,North,0,0.0,0.0,56,0.00,,,0.00,WUHU216HW,2013-02-23 04:03:00,
2013-02-22 20:08:00,54.2,39.3,30.19,North,0,0.0,0.0,57,0.00,,,0.00,WUHU216HW,2013-02-23 04:08:00,
2013-02-22 20:14:00,54.2,39.7,30.19,North,0,0.0,0.0,58,0.00,,,0.00,WUHU216HW,2013-02-23 04:14:00,
2013-02-22 20:19:00,54.0,39.5,30.19,North,0,0.0,0.0,58,0.00,,,0.00,WUHU216HW,2013-02-23 04:19:00,
2013-02-22 20:24:00,54.0,39.5,30.19,North,0,0.0,0.0,58,0.00,,,0.00,WUHU216HW,2013-02-23 04:24:00,
2013-02-22 20:29:00,53.8,39.3,30.19,North,0,0.0,0.0,58,0.00,,,0.00,WUHU216HW,2013-02-23 04:29:00,
2013-02-22 20:34:00,53.8,39.3,30.20,North,0,0.0,0.0,58,0.00,,,0.00,WUHU216HW,2013-02-23 04:34:00,
2013-02-22 20:39:00,53.6,39.7,30.20,North,0,0.0,0.0,59,0.00,,,0.00,WUHU216HW,2013-02-23 04:39:00,
2013-02-22 20:44:00,52.9,39.0,30.19,North,0,0.0,0.0,59,0.00,,,0.00,WUHU216HW,2013-02-23 04:44:00,
2013-02-22 20:49:00,52.4,38.4,30.18,North,0,0.0,0.0,59,0.00,,,0.00,WUHU216HW,2013-02-23 04:49:00,
2013-02-22 20:54:00,52.0,39.0,30.18,North,0,0.0,0.0,61,0.00,,,0.00,WUHU216HW,2013-02-23 04:54:00,
2013-02-22 20:59:00,51.5,38.4,30.18,North,0,0.0,0.0,61,0.00,,,0.00,WUHU216HW,2013-02-23 04:59:00,
2013-02-22 21:00:00,51.5,38.4,30.18,North,0,0.0,0.0,61,0.00,,,0.00,WUHU216HW,2013-02-23 05:00:00,
2013-02-22 21:05:00,51.5,38.9,30.18,North,0,0.0,0.0,62,0.00,,,0.00,WUHU216HW,2013-02-23 05:05:00,
2013-02-22 21:10:00,51.5,38.9,30.18,North,0,0.0,0.0,62,0.00,,,0.00,WUHU216HW,2013-02-23 05:10:00,
2013-02-22 21:15:00,51.5,38.9,30.18,North,0,0.0,0.0,62,0.00,,,0.00,WUHU216HW,2013-02-23 05:15:00,
2013-02-22 21:20:00,51.5,39.2,30.16,North,0,0.0,0.0,63,0.00,,,0.00,WUHU216HW,2013-02-23 05:20:00,
2013-02-22 21:25:00,51.1,39.3,30.15,North,0,0.0,0.0,64,0.00,,,0.00,WUHU216HW,2013-02-23 05:25:00,
2013-02-22 21:30:00,50.9,39.2,30.17,North,0,0.0,0.0,64,0.00,,,0.00,WUHU216HW,2013-02-23 05:30:00,
2013-02-22 21:36:00,50.9,39.2,30.17,North,0,0.0,0.0,64,0.00,,,0.00,WUHU216HW,2013-02-23 05:36:00,
2013-02-22 21:41:00,51.3,39.9,30.18,North,0,0.0,0.0,65,0.00,,,0.00,WUHU216HW,2013-02-23 05:41:00,
2013-02-22 21:46:00,51.3,39.5,30.19,North,0,0.0,0.0,64,0.00,,,0.00,WUHU216HW,2013-02-23 05:46:00,
2013-02-22 21:51:00,51.3,40.7,30.19,North,0,0.0,0.0,67,0.00,,,0.00,WUHU216HW,2013-02-23 05:51:00,
2013-02-22 21:56:00,51.1,41.0,30.20,North,0,0.0,0.0,68,0.00,,,0.00,WUHU216HW,2013-02-23 05:56:00,
2013-02-22 22:01:00,50.8,40.6,30.20,North,0,0.0,0.0,68,0.00,,,0.00,WUHU216HW,2013-02-23 06:01:00,
2013-02-22 22:06:00,50.4,40.7,30.21,North,0,0.0,0.0,69,0.00,,,0.00,WUHU216HW,2013-02-23 06:06:00,
2013-02-22 22:11:00,50.2,41.2,30.21,North,0,0.0,0.0,71,0.00,,,0.00,WUHU216HW,2013-02-23 06:11:00,
2013-02-22 22:16:00,50.2,40.5,30.21,North,0,0.0,0.0,69,0.00,,,0.00,WUHU216HW,2013-02-23 06:16:00,
2013-02-22 22:21:00,50.2,40.1,30.21,North,0,0.0,0.0,68,0.00,,,0.00,WUHU216HW,2013-02-23 06:21:00,
2013-02-22 22:26:00,50.2,40.1,30.21,North,0,0.0,0.0,68,0.00,,,0.00,WUHU216HW,2013-02-23 06:26:00,
2013-02-22 22:32:00,50.2,40.1,30.21,North,0,0.0,0.0,68,0.00,,,0.00,WUHU216HW,2013-02-23 06:32:00,
2013-02-22 22:37:00,50.4,40.7,30.21,North,0,0.0,0.0,69,0.00,,,0.00,WUHU216HW,2013-02-23 06:37:00,
2013-02-22 22:42:00,50.4,40.7,30.20,North,0,0.0,0.0,69,0.00,,,0.00,WUHU216HW,2013-02-23 06:42:00,
2013-02-22 22:47:00,50.4,40.7,30.20,North,0,0.0,0.0,69,0.00,,,0.00,WUHU216HW,2013-02-23 06:47:00,
2013-02-22 22:52:00,50.4,40.7,30.20,North,0,0.0,0.0,69,0.00,,,0.00,WUHU216HW,2013-02-23 06:52:00,
2013-02-22 22:57:00,50.6,40.9,30.21,North,0,0.0,0.0,69,0.00,,,0.00,WUHU216HW,2013-02-23 06:57:00,
2013-02-22 23:02:00,50.8,41.1,30.21,North,0,0.0,0.0,69,0.00,,,0.00,WUHU216HW,2013-02-23 07:02:00,
2013-02-22 23:07:00,50.6,40.9,30.21,North,0,0.0,0.0,69,0.00,,,0.00,WUHU216HW,2013-02-23 07:07:00,
2013-02-22 23:12:00,50.8,41.4,30.21,North,0,0.0,0.0,70,0.00,,,0.00,WUHU216HW,2013-02-23 07:12:00,
2013-02-22 23:17:00,50.8,41.4,30.20,North,0,0.0,0.0,70,0.00,,,0.00,WUHU216HW,2013-02-23 07:17:00,
2013-02-22 23:22:00,50.8,41.4,30.21,North,0,0.0,0.0,70,0.00,,,0.00,WUHU216HW,2013-02-23 07:22:00,
2013-02-22 23:27:00,50.8,41.8,30.21,North,0,0.0,0.0,71,0.00,,,0.00,WUHU216HW,2013-02-23 07:27:00,
2013-02-22 23:32:00,50.8,41.8,30.21,North,0,0.0,0.0,71,0.00,,,0.00,WUHU216HW,2013-02-23 07:32:00,
2013-02-22 23:37:00,50.8,42.1,30.21,North,0,0.0,0.0,72,0.00,,,0.00,WUHU216HW,2013-02-23 07:37:00,
2013-02-22 23:42:00,50.6,41.6,30.21,North,0,0.0,0.0,71,0.00,,,0.00,WUHU216HW,2013-02-23 07:42:00,
2013-02-22 23:47:00,50.6,42.2,30.20,North,0,0.0,0.0,73,0.00,,,0.00,WUHU216HW,2013-02-23 07:47:00,
2013-02-22 23:53:00,50.6,42.2,30.20,North,0,0.0,0.0,73,0.00,,,0.00,WUHU216HW,2013-02-23 07:53:00,
2013-02-22 23:58:00,50.4,42.8,30.21,North,0,0.0,0.0,75,0.00,,,0.00,WUHU216HW,2013-02-23 07:58:00,